createdAt,value
2018-12-18T00:00:44.259Z,7.20
2018-12-18T00:01:44.247Z,7.17
2018-12-18T00:02:44.257Z,7.10
2018-12-18T00:03:44.290Z,7.17
2018-12-18T00:04:44.291Z,7.15
2018-12-18T00:05:44.310Z,7.15
2018-12-18T00:06:44.328Z,7.24
2018-12-18T00:07:44.579Z,7.20
2018-12-18T00:08:44.507Z,7.20
2018-12-18T00:09:44.388Z,7.20
2018-12-18T00:10:44.398Z,7.17
2018-12-18T00:11:44.405Z,7.13
2018-12-18T00:12:44.431Z,7.14
2018-12-18T00:13:44.455Z,7.17
2018-12-18T00:14:44.458Z,7.07
2018-12-18T00:15:44.491Z,7.17
2018-12-18T00:16:44.486Z,7.17
2018-12-18T00:17:44.528Z,7.15
2018-12-18T00:18:44.529Z,7.15
2018-12-18T00:19:44.587Z,7.00
2018-12-18T00:20:44.560Z,7.14
2018-12-18T00:21:44.572Z,7.11
2018-12-18T00:22:44.607Z,7.10
2018-12-18T00:23:44.620Z,7.17
2018-12-18T00:24:44.620Z,7.15
2018-12-18T00:25:44.643Z,7.11
2018-12-18T00:26:44.651Z,7.14
2018-12-18T00:27:44.669Z,6.93
2018-12-18T00:28:44.685Z,6.87
2018-12-18T00:29:44.712Z,6.95
2018-12-18T00:30:44.739Z,6.97
2018-12-18T00:31:44.734Z,7.02
2018-12-18T00:32:44.756Z,6.96
2018-12-18T00:33:46.209Z,7.00
2018-12-18T00:34:44.816Z,6.97
2018-12-18T00:35:44.817Z,6.95
2018-12-18T00:36:44.844Z,6.97
2018-12-18T00:37:44.844Z,6.93
2018-12-18T00:38:44.854Z,7.13
2018-12-18T00:39:44.870Z,7.10
2018-12-18T00:40:44.906Z,7.03
2018-12-18T00:41:44.909Z,6.96
2018-12-18T00:42:44.921Z,6.96
2018-12-18T00:43:44.929Z,7.11
2018-12-18T00:44:44.951Z,7.07
2018-12-18T00:45:44.972Z,7.11
2018-12-18T00:46:44.994Z,7.17
2018-12-18T00:47:44.997Z,7.15
2018-12-18T00:48:45.009Z,7.14
2018-12-18T00:49:45.051Z,7.13
2018-12-18T00:50:45.047Z,7.17
2018-12-18T00:51:45.065Z,7.13
2018-12-18T00:52:45.075Z,7.13
2018-12-18T00:53:45.101Z,7.13
2018-12-18T00:54:45.123Z,7.18
2018-12-18T00:55:45.126Z,7.10
2018-12-18T00:56:45.143Z,7.17
2018-12-18T00:57:45.163Z,7.20
2018-12-18T00:58:45.188Z,7.13
2018-12-18T00:59:45.197Z,7.18
2018-12-18T01:00:45.210Z,7.17
2018-12-18T01:01:45.229Z,7.18
2018-12-18T01:02:45.253Z,7.05
2018-12-18T01:03:45.260Z,6.93
2018-12-18T01:04:45.288Z,7.05
2018-12-18T01:05:45.287Z,6.89
2018-12-18T01:06:45.308Z,6.93
2018-12-18T01:07:45.326Z,6.99
2018-12-18T01:08:45.384Z,7.15
2018-12-18T01:09:45.356Z,7.13
2018-12-18T01:10:45.372Z,7.00
2018-12-18T01:11:45.397Z,6.97
2018-12-18T01:12:45.410Z,7.06
2018-12-18T01:13:45.439Z,7.02
2018-12-18T01:14:45.449Z,7.14
2018-12-18T01:15:45.456Z,7.13
2018-12-18T01:16:45.945Z,7.13
2018-12-18T01:17:45.542Z,7.10
2018-12-18T01:18:45.519Z,7.14
2018-12-18T01:19:45.548Z,7.15
2018-12-18T01:20:45.551Z,7.02
2018-12-18T01:21:45.557Z,7.13
2018-12-18T01:22:45.571Z,7.05
2018-12-18T01:23:45.592Z,6.97
2018-12-18T01:24:45.605Z,6.95
2018-12-18T01:25:45.636Z,7.05
2018-12-18T01:26:45.640Z,6.99
2018-12-18T01:27:45.662Z,7.06
2018-12-18T01:28:45.672Z,7.17
2018-12-18T01:29:45.705Z,7.17
2018-12-18T01:30:45.701Z,7.06
2018-12-18T01:31:45.718Z,7.18
2018-12-18T01:32:45.737Z,6.95
2018-12-18T01:33:45.756Z,6.85
2018-12-18T01:34:45.769Z,6.92
2018-12-18T01:35:45.805Z,6.93
2018-12-18T01:36:45.813Z,6.95
2018-12-18T01:37:45.843Z,6.89
2018-12-18T01:38:45.834Z,6.92
2018-12-18T01:39:45.935Z,6.93
2018-12-18T01:40:45.872Z,6.88
2018-12-18T01:41:45.890Z,6.79
2018-12-18T01:42:45.902Z,6.85
2018-12-18T01:43:45.916Z,6.87
2018-12-18T01:44:45.947Z,6.87
2018-12-18T01:45:45.974Z,6.93
2018-12-18T01:46:45.970Z,6.95
2018-12-18T01:47:45.979Z,7.00
2018-12-18T01:48:45.997Z,7.00
2018-12-18T01:49:46.017Z,6.96
2018-12-18T01:50:46.072Z,7.10
2018-12-18T01:51:46.049Z,7.13
2018-12-18T01:52:46.077Z,7.14
2018-12-18T01:53:46.075Z,7.13
2018-12-18T01:54:46.145Z,7.07
2018-12-18T01:55:46.110Z,7.05
2018-12-18T01:56:46.133Z,7.14
2018-12-18T01:57:46.143Z,7.15
2018-12-18T01:58:46.169Z,7.20
2018-12-18T01:59:46.172Z,7.17
2018-12-18T02:00:46.194Z,7.14
2018-12-18T02:01:46.209Z,7.11
2018-12-18T02:02:46.241Z,7.06
2018-12-18T02:03:46.248Z,6.95
2018-12-18T02:04:46.263Z,6.99
2018-12-18T02:05:46.277Z,7.10
2018-12-18T02:06:46.307Z,7.07
2018-12-18T02:07:46.333Z,7.18
2018-12-18T02:08:46.345Z,7.18
2018-12-18T02:09:46.343Z,7.10
2018-12-18T02:10:46.373Z,7.11
2018-12-18T02:11:46.440Z,7.13
2018-12-18T02:12:46.397Z,7.15
2018-12-18T02:13:46.404Z,7.18
2018-12-18T02:14:46.428Z,7.13
2018-12-18T02:15:46.438Z,7.17
2018-12-18T02:16:46.460Z,7.15
2018-12-18T02:17:46.503Z,7.20
2018-12-18T02:18:46.491Z,7.07
2018-12-18T02:19:46.508Z,7.00
2018-12-18T02:20:46.522Z,6.97
2018-12-18T02:21:46.537Z,6.95
2018-12-18T02:22:46.569Z,6.95
2018-12-18T02:23:46.581Z,6.96
2018-12-18T02:24:46.610Z,7.06
2018-12-18T02:25:46.600Z,7.11
2018-12-18T02:26:46.624Z,7.17
2018-12-18T02:27:46.650Z,7.17
2018-12-18T02:28:46.656Z,7.13
2018-12-18T02:29:46.677Z,7.10
2018-12-18T02:30:46.687Z,7.05
2018-12-18T02:31:46.719Z,6.93
2018-12-18T02:32:46.733Z,6.96
2018-12-18T02:33:46.734Z,7.07
2018-12-18T02:34:46.757Z,7.13
2018-12-18T02:35:46.769Z,7.07
2018-12-18T02:36:46.782Z,7.13
2018-12-18T02:37:46.829Z,7.05
2018-12-18T02:38:46.828Z,7.11
2018-12-18T02:39:46.832Z,7.13
2018-12-18T02:40:46.894Z,7.17
2018-12-18T02:41:46.863Z,7.15
2018-12-18T02:42:46.900Z,7.18
2018-12-18T02:43:47.010Z,7.20
2018-12-18T02:44:46.918Z,7.23
2018-12-18T02:45:46.931Z,7.31
2018-12-18T02:46:46.950Z,7.32
2018-12-18T02:47:46.966Z,7.32
2018-12-18T02:48:46.984Z,7.18
2018-12-18T02:49:47.014Z,7.20
2018-12-18T02:50:47.024Z,7.31
2018-12-18T02:51:47.033Z,7.32
2018-12-18T02:52:47.050Z,7.17
2018-12-18T02:53:47.060Z,7.32
2018-12-18T02:54:47.092Z,7.23
2018-12-18T02:55:47.094Z,7.28
2018-12-18T02:56:47.116Z,7.31
2018-12-18T02:57:47.132Z,7.17
2018-12-18T02:58:47.141Z,7.28
2018-12-18T02:59:47.165Z,7.32
2018-12-18T03:00:47.184Z,7.28
2018-12-18T03:01:47.198Z,7.25
2018-12-18T03:02:47.210Z,7.25
2018-12-18T03:03:47.273Z,7.28
2018-12-18T03:04:47.246Z,7.23
2018-12-18T03:05:47.257Z,7.29
2018-12-18T03:06:47.285Z,7.24
2018-12-18T03:07:47.304Z,7.31
2018-12-18T03:08:47.312Z,7.25
2018-12-18T03:09:47.322Z,7.23
2018-12-18T03:10:47.349Z,7.14
2018-12-18T03:11:47.364Z,7.17
2018-12-18T03:12:47.384Z,7.28
2018-12-18T03:13:47.404Z,7.28
2018-12-18T03:14:47.413Z,7.31
2018-12-18T03:15:47.429Z,7.21
2018-12-18T03:16:47.448Z,7.28
2018-12-18T03:17:47.455Z,7.23
2018-12-18T03:18:47.485Z,7.28
2018-12-18T03:19:47.494Z,7.18
2018-12-18T03:20:47.505Z,7.07
2018-12-18T03:21:47.527Z,6.96
2018-12-18T03:22:47.546Z,6.92
2018-12-18T03:23:47.553Z,6.93
2018-12-18T03:24:47.573Z,6.88
2018-12-18T03:25:47.586Z,7.00
2018-12-18T03:26:47.662Z,6.99
2018-12-18T03:27:47.624Z,7.05
2018-12-18T03:28:47.639Z,7.17
2018-12-18T03:29:47.657Z,7.06
2018-12-18T03:30:47.679Z,6.93
2018-12-18T03:31:47.688Z,7.06
2018-12-18T03:32:47.714Z,7.10
2018-12-18T03:33:47.726Z,7.13
2018-12-18T03:34:47.736Z,7.07
2018-12-18T03:35:47.748Z,7.06
2018-12-18T03:36:47.787Z,7.18
2018-12-18T03:37:47.783Z,7.11
2018-12-18T03:38:47.805Z,7.07
2018-12-18T03:39:47.830Z,7.07
2018-12-18T03:40:47.832Z,6.95
2018-12-18T03:41:47.860Z,6.89
2018-12-18T03:42:47.867Z,6.84
2018-12-18T03:43:47.891Z,6.88
2018-12-18T03:44:47.902Z,6.89
2018-12-18T03:45:47.918Z,6.95
2018-12-18T03:46:47.931Z,6.96
2018-12-18T03:47:47.945Z,7.00
2018-12-18T03:48:47.966Z,7.05
2018-12-18T03:49:47.987Z,7.07
2018-12-18T03:50:48.050Z,7.14
2018-12-18T03:51:48.013Z,7.10
2018-12-18T03:52:48.043Z,7.15
2018-12-18T03:53:48.060Z,7.17
2018-12-18T03:54:48.066Z,7.17
2018-12-18T03:55:48.093Z,7.14
2018-12-18T03:56:48.103Z,7.11
2018-12-18T03:57:48.118Z,7.18
2018-12-18T03:58:48.128Z,7.17
2018-12-18T03:59:48.185Z,7.11
2018-12-18T04:00:48.158Z,7.20
2018-12-18T04:01:48.175Z,7.13
2018-12-18T04:02:48.208Z,6.96
2018-12-18T04:03:48.209Z,6.96
2018-12-18T04:04:48.237Z,6.93
2018-12-18T04:05:48.245Z,7.02
2018-12-18T04:06:48.267Z,7.02
2018-12-18T04:07:48.286Z,6.97
2018-12-18T04:08:48.294Z,7.03
2018-12-18T04:09:48.307Z,7.06
2018-12-18T04:10:48.326Z,7.07
2018-12-18T04:11:48.342Z,6.96
2018-12-18T04:12:48.376Z,7.13
2018-12-18T04:13:48.380Z,7.15
2018-12-18T04:14:48.420Z,7.11
2018-12-18T04:15:48.410Z,7.17
2018-12-18T04:16:48.426Z,7.13
2018-12-18T04:17:48.441Z,7.17
2018-12-18T04:18:48.455Z,7.11
2018-12-18T04:19:48.500Z,7.05
2018-12-18T04:20:48.491Z,6.89
2018-12-18T04:21:48.509Z,6.95
2018-12-18T04:22:48.532Z,6.88
2018-12-18T04:23:48.545Z,6.85
2018-12-18T04:24:48.570Z,6.93
2018-12-18T04:25:48.567Z,6.99
2018-12-18T04:26:48.594Z,6.96
2018-12-18T04:27:48.611Z,6.88
2018-12-18T04:28:48.632Z,6.77
2018-12-18T04:29:48.649Z,6.81
2018-12-18T04:30:48.723Z,6.96
2018-12-18T04:31:48.671Z,6.79
2018-12-18T04:32:48.698Z,6.81
2018-12-18T04:33:48.709Z,6.70
2018-12-18T04:34:48.725Z,6.70
2018-12-18T04:35:48.755Z,6.79
2018-12-18T04:36:48.754Z,6.79
2018-12-18T04:37:48.763Z,6.79
2018-12-18T04:38:48.786Z,6.81
2018-12-18T04:39:48.800Z,6.85
2018-12-18T04:40:48.815Z,6.85
2018-12-18T04:41:48.835Z,6.79
2018-12-18T04:42:48.846Z,6.79
2018-12-18T04:43:48.861Z,6.81
2018-12-18T04:44:48.883Z,6.78
2018-12-18T04:45:48.891Z,6.70
2018-12-18T04:46:48.917Z,6.78
2018-12-18T04:47:48.923Z,6.72
2018-12-18T04:48:48.948Z,6.79
2018-12-18T04:49:48.963Z,6.84
2018-12-18T04:50:49.003Z,6.92
2018-12-18T04:51:48.991Z,6.88
2018-12-18T04:52:49.015Z,6.84
2018-12-18T04:53:49.026Z,6.84
2018-12-18T04:54:49.036Z,6.75
2018-12-18T04:55:49.077Z,6.75
2018-12-18T04:56:49.078Z,6.87
2018-12-18T04:57:49.102Z,6.79
2018-12-18T04:58:49.106Z,6.78
2018-12-18T04:59:49.127Z,6.78
2018-12-18T05:00:49.170Z,6.84
2018-12-18T05:01:49.171Z,6.84
2018-12-18T05:02:49.170Z,6.95
2018-12-18T05:03:49.197Z,6.92
2018-12-18T05:04:50.531Z,6.97
2018-12-18T05:05:49.235Z,6.97
2018-12-18T05:06:49.253Z,6.84
2018-12-18T05:07:49.250Z,6.70
2018-12-18T05:08:49.288Z,6.72
2018-12-18T05:09:49.296Z,6.62
2018-12-18T05:10:49.302Z,6.62
2018-12-18T05:11:49.320Z,6.70
2018-12-18T05:12:49.333Z,6.87
2018-12-18T05:13:49.364Z,6.85
2018-12-18T05:14:49.386Z,6.82
2018-12-18T05:15:49.387Z,6.89
2018-12-18T05:16:49.401Z,6.79
2018-12-18T05:17:49.415Z,6.93
2018-12-18T05:18:49.444Z,7.00
2018-12-18T05:19:49.473Z,6.93
2018-12-18T05:20:49.472Z,6.79
2018-12-18T05:21:49.509Z,6.85
2018-12-18T05:22:49.493Z,6.77
2018-12-18T05:23:49.524Z,6.85
2018-12-18T05:24:49.533Z,6.87
2018-12-18T05:25:49.546Z,6.87
2018-12-18T05:26:49.562Z,6.85
2018-12-18T05:27:49.601Z,6.85
2018-12-18T05:28:49.597Z,6.77
2018-12-18T05:29:49.620Z,6.67
2018-12-18T05:30:49.626Z,6.70
2018-12-18T05:31:49.648Z,6.87
2018-12-18T05:32:49.663Z,6.72
2018-12-18T05:33:49.677Z,6.82
2018-12-18T05:34:49.692Z,6.77
2018-12-18T05:35:49.714Z,6.64
2018-12-18T05:36:49.725Z,6.62
2018-12-18T05:37:49.743Z,6.54
2018-12-18T05:38:49.799Z,6.46
2018-12-18T05:39:49.777Z,6.54
2018-12-18T05:40:49.789Z,6.52
2018-12-18T05:41:49.810Z,6.49
2018-12-18T05:42:49.824Z,6.57
2018-12-18T05:43:49.842Z,6.54
2018-12-18T05:44:49.857Z,6.62
2018-12-18T05:45:49.879Z,6.64
2018-12-18T05:46:49.890Z,6.59
2018-12-18T05:47:49.902Z,6.72
2018-12-18T05:48:49.921Z,6.69
2018-12-18T05:49:49.936Z,6.81
2018-12-18T05:50:50.026Z,6.81
2018-12-18T05:51:49.969Z,6.81
2018-12-18T05:52:50.000Z,7.00
2018-12-18T05:53:50.003Z,6.92
2018-12-18T05:54:50.020Z,6.84
2018-12-18T05:55:50.032Z,6.92
2018-12-18T05:56:50.054Z,6.97
2018-12-18T05:57:50.070Z,6.96
2018-12-18T05:58:50.097Z,6.92
2018-12-18T05:59:50.116Z,6.81
2018-12-18T06:00:50.133Z,6.82
2018-12-18T06:01:50.129Z,6.84
2018-12-18T06:02:50.146Z,7.00
2018-12-18T06:03:50.166Z,6.95
2018-12-18T06:04:50.194Z,6.84
2018-12-18T06:05:50.191Z,6.92
2018-12-18T06:06:50.208Z,6.97
2018-12-18T06:07:50.270Z,6.95
2018-12-18T06:08:50.246Z,6.89
2018-12-18T06:09:50.263Z,7.10
2018-12-18T06:10:50.276Z,6.92
2018-12-18T06:11:50.310Z,6.97
2018-12-18T06:12:50.335Z,6.96
2018-12-18T06:13:50.506Z,6.95
2018-12-18T06:14:50.338Z,6.81
2018-12-18T06:15:50.358Z,6.87
2018-12-18T06:16:50.376Z,6.84
2018-12-18T06:17:50.391Z,6.87
2018-12-18T06:18:50.405Z,6.93
2018-12-18T06:19:50.552Z,6.92
2018-12-18T06:20:50.455Z,6.92
2018-12-18T06:21:50.455Z,6.93
2018-12-18T06:22:50.475Z,6.95
2018-12-18T06:23:50.510Z,6.93
2018-12-18T06:24:50.682Z,6.97
2018-12-18T06:25:50.524Z,6.99
2018-12-18T06:26:50.579Z,6.95
2018-12-18T06:27:50.578Z,6.97
2018-12-18T06:28:50.618Z,6.96
2018-12-18T06:29:50.585Z,6.99
2018-12-18T06:30:50.618Z,6.92
2018-12-18T06:31:50.618Z,6.92
2018-12-18T06:32:50.648Z,6.87
2018-12-18T06:33:50.676Z,6.78
2018-12-18T06:34:50.712Z,6.84
2018-12-18T06:35:50.739Z,6.99
2018-12-18T06:36:50.724Z,6.92
2018-12-18T06:37:50.730Z,6.99
2018-12-18T06:38:50.739Z,6.95
2018-12-18T06:39:50.750Z,6.92
2018-12-18T06:40:50.767Z,6.81
2018-12-18T06:41:50.787Z,6.82
2018-12-18T06:42:50.802Z,6.84
2018-12-18T06:43:50.812Z,6.77
2018-12-18T06:44:50.828Z,6.70
2018-12-18T06:45:50.842Z,6.66
2018-12-18T06:46:50.862Z,6.66
2018-12-18T06:47:50.889Z,6.75
2018-12-18T06:48:50.901Z,6.67
2018-12-18T06:49:50.945Z,6.75
2018-12-18T06:50:50.925Z,6.70
2018-12-18T06:51:50.961Z,6.75
2018-12-18T06:52:50.977Z,6.74
2018-12-18T06:53:50.972Z,6.75
2018-12-18T06:54:51.135Z,6.82
2018-12-18T06:55:51.011Z,6.66
2018-12-18T06:56:51.040Z,6.67
2018-12-18T06:57:51.072Z,6.82
2018-12-18T06:58:51.057Z,6.74
2018-12-18T06:59:51.071Z,6.87
2018-12-18T07:00:51.092Z,6.85
2018-12-18T07:01:51.107Z,6.78
2018-12-18T07:02:51.124Z,6.79
2018-12-18T07:03:51.141Z,6.67
2018-12-18T07:04:51.153Z,6.70
2018-12-18T07:05:51.181Z,6.85
2018-12-18T07:06:51.182Z,6.95
2018-12-18T07:07:57.191Z,6.85
2018-12-18T07:08:51.215Z,6.79
2018-12-18T07:09:51.235Z,6.70
2018-12-18T07:10:51.256Z,6.62
2018-12-18T07:11:51.269Z,6.74
2018-12-18T07:12:51.291Z,6.75
2018-12-18T07:13:51.294Z,6.74
2018-12-18T07:14:51.313Z,6.82
2018-12-18T07:15:51.470Z,6.74
2018-12-18T07:16:51.353Z,6.67
2018-12-18T07:17:51.356Z,6.46
2018-12-18T07:18:51.410Z,6.42
2018-12-18T07:19:51.393Z,6.38
2018-12-18T07:20:51.407Z,6.39
2018-12-18T07:21:51.436Z,6.36
2018-12-18T07:22:51.447Z,6.41
2018-12-18T07:23:51.457Z,6.28
2018-12-18T07:24:51.478Z,6.39
2018-12-18T07:25:51.523Z,6.45
2018-12-18T07:26:51.524Z,6.42
2018-12-18T07:27:51.554Z,6.41
2018-12-18T07:28:51.552Z,6.45
2018-12-18T07:29:51.571Z,6.44
2018-12-18T07:30:51.573Z,6.51
2018-12-18T07:31:51.588Z,6.39
2018-12-18T07:32:51.606Z,6.41
2018-12-18T07:33:51.615Z,6.42
2018-12-18T07:34:51.637Z,6.48
2018-12-18T07:35:51.646Z,6.41
2018-12-18T07:36:51.666Z,6.54
2018-12-18T07:37:51.684Z,6.56
2018-12-18T07:38:51.786Z,6.64
2018-12-18T07:39:51.717Z,6.49
2018-12-18T07:40:51.732Z,6.59
2018-12-18T07:41:51.748Z,6.74
2018-12-18T07:42:51.757Z,6.77
2018-12-18T07:43:51.782Z,6.75
2018-12-18T07:44:51.798Z,6.66
2018-12-18T07:45:51.809Z,6.72
2018-12-18T07:46:51.822Z,6.70
2018-12-18T07:47:51.846Z,6.81
2018-12-18T07:48:51.861Z,6.81
2018-12-18T07:49:51.880Z,6.95
2018-12-18T07:50:51.891Z,6.88
2018-12-18T07:51:51.915Z,7.05
2018-12-18T07:52:51.932Z,7.00
2018-12-18T07:53:51.944Z,6.78
2018-12-18T07:54:51.949Z,6.89
2018-12-18T07:55:51.967Z,7.00
2018-12-18T07:56:51.998Z,7.03
2018-12-18T07:57:51.999Z,6.84
2018-12-18T07:58:52.022Z,6.81
2018-12-18T07:59:52.040Z,6.81
2018-12-18T08:00:52.058Z,6.67
2018-12-18T08:01:52.065Z,6.79
2018-12-18T08:02:52.082Z,6.82
2018-12-18T08:03:52.108Z,6.95
2018-12-18T08:04:52.130Z,7.00
2018-12-18T08:05:52.153Z,7.07
2018-12-18T08:06:52.154Z,7.10
2018-12-18T08:07:52.166Z,6.88
2018-12-18T08:08:52.181Z,6.81
2018-12-18T08:09:52.198Z,6.89
2018-12-18T08:10:52.212Z,7.14
2018-12-18T08:11:52.225Z,6.96
2018-12-18T08:12:52.253Z,7.03
2018-12-18T08:13:52.278Z,6.95
2018-12-18T08:14:52.353Z,6.97
2018-12-18T08:15:52.301Z,6.85
2018-12-18T08:16:52.332Z,6.82
2018-12-18T08:17:52.326Z,6.87
2018-12-18T08:18:52.392Z,6.84
2018-12-18T08:19:52.372Z,6.84
2018-12-18T08:20:52.377Z,6.89
2018-12-18T08:21:52.395Z,6.95
2018-12-18T08:22:52.413Z,7.07
2018-12-18T08:23:52.446Z,7.03
2018-12-18T08:24:52.446Z,7.05
2018-12-18T08:25:52.455Z,6.92
2018-12-18T08:26:52.471Z,6.88
2018-12-18T08:27:52.487Z,7.07
2018-12-18T08:28:52.577Z,7.07
2018-12-18T08:29:52.517Z,7.15
2018-12-18T08:30:52.534Z,7.14
2018-12-18T08:31:52.560Z,7.17
2018-12-18T08:32:52.568Z,7.13
2018-12-18T08:33:52.594Z,7.15
2018-12-18T08:34:52.607Z,7.20
2018-12-18T08:35:52.639Z,7.31
2018-12-18T08:36:52.636Z,7.29
2018-12-18T08:37:52.650Z,7.29
2018-12-18T08:38:52.670Z,7.14
2018-12-18T08:39:52.699Z,7.15
2018-12-18T08:40:52.698Z,7.11
2018-12-18T08:41:52.713Z,6.99
2018-12-18T08:42:52.742Z,6.92
2018-12-18T08:43:52.758Z,6.93
2018-12-18T08:44:52.783Z,6.85
2018-12-18T08:45:52.788Z,7.14
2018-12-18T08:46:52.793Z,7.15
2018-12-18T08:47:52.828Z,7.28
2018-12-18T08:48:52.829Z,7.29
2018-12-18T08:49:52.851Z,7.29
2018-12-18T08:50:52.873Z,7.28
2018-12-18T08:51:52.879Z,7.29
2018-12-18T08:52:52.917Z,7.17
2018-12-18T08:53:52.915Z,7.13
2018-12-18T08:54:52.931Z,7.23
2018-12-18T08:55:52.951Z,7.17
2018-12-18T08:56:52.973Z,7.14
2018-12-18T08:57:52.984Z,7.07
2018-12-18T08:58:53.000Z,7.07
2018-12-18T08:59:53.012Z,7.18
2018-12-18T09:00:53.062Z,7.10
2018-12-18T09:01:53.042Z,7.17
2018-12-18T09:02:53.064Z,7.21
2018-12-18T09:03:53.085Z,7.33
2018-12-18T09:04:53.114Z,7.45
2018-12-18T09:05:53.121Z,7.32
2018-12-18T09:06:53.147Z,7.25
2018-12-18T09:07:53.155Z,7.20
2018-12-18T09:08:53.168Z,7.28
2018-12-18T09:09:53.180Z,7.36
2018-12-18T09:10:53.203Z,7.36
2018-12-18T09:11:53.218Z,7.45
2018-12-18T09:12:53.226Z,7.39
2018-12-18T09:13:53.314Z,7.42
2018-12-18T09:14:53.259Z,7.36
2018-12-18T09:15:53.299Z,7.42
2018-12-18T09:16:53.319Z,7.35
2018-12-18T09:17:53.306Z,7.32
2018-12-18T09:18:53.330Z,7.32
2018-12-18T09:19:53.356Z,7.29
2018-12-18T09:20:53.407Z,7.18
2018-12-18T09:21:53.380Z,7.14
2018-12-18T09:22:53.426Z,7.21
2018-12-18T09:23:53.437Z,7.18
2018-12-18T09:24:53.435Z,7.17
2018-12-18T09:25:53.459Z,7.29
2018-12-18T09:26:53.528Z,7.39
2018-12-18T09:27:53.473Z,7.48
2018-12-18T09:28:53.487Z,7.36
2018-12-18T09:29:53.511Z,7.33
2018-12-18T09:30:53.524Z,7.23
2018-12-18T09:31:53.566Z,7.07
2018-12-18T09:32:53.557Z,7.15
2018-12-18T09:33:53.576Z,7.21
2018-12-18T09:34:53.733Z,7.36
2018-12-18T09:35:53.623Z,7.29
2018-12-18T09:36:53.640Z,7.23
2018-12-18T09:37:53.644Z,7.36
2018-12-18T09:38:53.659Z,7.32
2018-12-18T09:39:53.681Z,7.18
2018-12-18T09:40:53.694Z,7.40
2018-12-18T09:41:53.707Z,7.56
2018-12-18T09:42:53.723Z,7.24
2018-12-18T09:43:53.741Z,7.24
2018-12-18T09:44:53.764Z,7.36
2018-12-18T09:45:53.811Z,7.47
2018-12-18T09:46:53.801Z,7.47
2018-12-18T09:47:53.811Z,7.67
2018-12-18T09:48:53.822Z,7.73
2018-12-18T09:49:53.958Z,7.79
2018-12-18T09:50:53.875Z,8.05
2018-12-18T09:51:53.882Z,7.98
2018-12-18T09:52:53.889Z,8.01
2018-12-18T09:53:53.930Z,7.70
2018-12-18T09:54:53.924Z,7.47
2018-12-18T09:55:53.951Z,7.61
2018-12-18T09:56:53.989Z,7.70
2018-12-18T09:57:53.997Z,7.79
2018-12-18T09:58:53.985Z,7.70
2018-12-18T09:59:54.008Z,7.76
2018-12-18T10:00:55.524Z,7.63
2018-12-18T10:01:54.068Z,7.54
2018-12-18T10:02:54.074Z,7.69
2018-12-18T10:03:54.076Z,7.69
2018-12-18T10:04:54.102Z,7.47
2018-12-18T10:05:56.407Z,7.87
2018-12-18T10:06:54.138Z,7.91
2018-12-18T10:07:54.145Z,7.87
2018-12-18T10:08:54.156Z,7.80
2018-12-18T10:09:54.173Z,7.80
2018-12-18T10:10:54.193Z,7.66
2018-12-18T10:11:54.206Z,7.77
2018-12-18T10:12:54.371Z,7.85
2018-12-18T10:13:54.247Z,7.82
2018-12-18T10:14:54.291Z,7.77
2018-12-18T10:15:54.320Z,7.97
2018-12-18T10:16:54.299Z,7.97
2018-12-18T10:17:54.308Z,8.00
2018-12-18T10:18:54.330Z,8.08
2018-12-18T10:19:54.339Z,8.19
2018-12-18T10:20:54.362Z,8.26
2018-12-18T10:21:54.382Z,8.20
2018-12-18T10:22:54.401Z,8.18
2018-12-18T10:23:54.412Z,8.24
2018-12-18T10:24:54.431Z,8.28
2018-12-18T10:25:54.441Z,8.24
2018-12-18T10:26:54.529Z,8.18
2018-12-18T10:27:54.479Z,8.15
2018-12-18T10:28:54.511Z,8.19
2018-12-18T10:29:54.511Z,8.10
2018-12-18T10:30:54.547Z,8.33
2018-12-18T10:31:54.551Z,8.23
2018-12-18T10:32:54.568Z,8.36
2018-12-18T10:33:54.577Z,8.27
2018-12-18T10:34:54.592Z,8.48
2018-12-18T10:35:54.616Z,8.13
2018-12-18T10:36:54.632Z,7.91
2018-12-18T10:37:54.649Z,7.87
2018-12-18T10:38:54.662Z,8.05
2018-12-18T10:39:54.678Z,8.15
2018-12-18T10:40:54.698Z,8.00
2018-12-18T10:41:54.713Z,7.76
2018-12-18T10:42:54.746Z,7.87
2018-12-18T10:43:54.751Z,7.88
2018-12-18T10:44:54.767Z,7.77
2018-12-18T10:45:54.792Z,7.77
2018-12-18T10:46:54.800Z,7.69
2018-12-18T10:47:54.818Z,7.82
2018-12-18T10:48:54.941Z,7.88
2018-12-18T10:49:54.854Z,7.82
2018-12-18T10:50:54.877Z,7.97
2018-12-18T10:51:54.892Z,7.76
2018-12-18T10:52:54.902Z,7.83
2018-12-18T10:53:54.933Z,8.01
2018-12-18T10:54:54.944Z,7.94
2018-12-18T10:55:54.956Z,8.03
2018-12-18T10:56:54.969Z,7.95
2018-12-18T10:57:54.996Z,7.98
2018-12-18T10:58:55.029Z,7.83
2018-12-18T10:59:55.039Z,7.87
2018-12-18T11:00:55.227Z,7.91
2018-12-18T11:01:55.054Z,7.91
2018-12-18T11:02:55.087Z,8.23
2018-12-18T11:03:55.088Z,8.13
2018-12-18T11:04:55.126Z,7.98
2018-12-18T11:05:55.144Z,7.91
2018-12-18T11:06:55.145Z,7.63
2018-12-18T11:07:55.159Z,7.72
2018-12-18T11:08:55.215Z,7.91
2018-12-18T11:09:55.194Z,7.93
2018-12-18T11:10:55.211Z,7.91
2018-12-18T11:11:55.245Z,7.97
2018-12-18T11:12:55.240Z,7.94
2018-12-18T11:13:55.264Z,7.98
2018-12-18T11:14:55.284Z,8.13
2018-12-18T11:15:55.312Z,8.15
2018-12-18T11:16:55.314Z,8.05
2018-12-18T11:17:55.332Z,8.06
2018-12-18T11:18:55.341Z,7.91
2018-12-18T11:19:55.365Z,7.91
2018-12-18T11:20:55.394Z,8.10
2018-12-18T11:21:55.402Z,7.93
2018-12-18T11:22:55.424Z,7.88
2018-12-18T11:23:55.455Z,7.95
2018-12-18T11:24:55.523Z,8.03
2018-12-18T11:25:55.476Z,8.19
2018-12-18T11:26:55.487Z,8.27
2018-12-18T11:27:55.496Z,8.12
2018-12-18T11:28:55.514Z,8.00
2018-12-18T11:29:55.574Z,7.94
2018-12-18T11:30:55.567Z,7.85
2018-12-18T11:31:55.571Z,8.03
2018-12-18T11:32:55.579Z,7.83
2018-12-18T11:33:55.609Z,7.94
2018-12-18T11:34:55.621Z,8.05
2018-12-18T11:35:55.643Z,8.06
2018-12-18T11:36:55.692Z,7.97
2018-12-18T11:37:55.663Z,7.98
2018-12-18T11:38:55.683Z,7.90
2018-12-18T11:39:55.698Z,7.94
2018-12-18T11:40:55.721Z,8.16
2018-12-18T11:41:55.733Z,8.15
2018-12-18T11:42:55.761Z,8.06
2018-12-18T11:43:55.769Z,8.19
2018-12-18T11:44:55.787Z,8.10
2018-12-18T11:45:55.884Z,8.24
2018-12-18T11:46:55.815Z,8.30
2018-12-18T11:47:55.854Z,8.34
2018-12-18T11:48:55.853Z,8.03
2018-12-18T11:49:55.862Z,8.10
2018-12-18T11:50:55.889Z,8.19
2018-12-18T11:51:55.916Z,8.09
2018-12-18T11:52:55.925Z,8.06
2018-12-18T11:53:55.943Z,8.19
2018-12-18T11:54:55.967Z,8.09
2018-12-18T11:55:55.969Z,8.09
2018-12-18T11:56:55.985Z,8.03
2018-12-18T11:57:56.010Z,8.20
2018-12-18T11:58:56.017Z,8.16
2018-12-18T11:59:56.031Z,8.31
2018-12-18T12:00:56.081Z,8.33
2018-12-18T12:01:56.073Z,8.41
2018-12-18T12:02:56.091Z,8.36
2018-12-18T12:03:56.109Z,8.03
2018-12-18T12:04:56.134Z,8.01
2018-12-18T12:05:56.165Z,8.09
2018-12-18T12:06:56.178Z,8.26
2018-12-18T12:07:56.168Z,8.19
2018-12-18T12:08:56.188Z,8.15
2018-12-18T12:09:56.205Z,8.10
2018-12-18T12:10:56.270Z,8.18
2018-12-18T12:11:56.241Z,8.15
2018-12-18T12:12:56.254Z,8.23
2018-12-18T12:13:56.273Z,8.05
2018-12-18T12:14:56.293Z,8.01
2018-12-18T12:15:56.311Z,7.98
2018-12-18T12:16:56.329Z,8.10
2018-12-18T12:17:56.348Z,8.37
2018-12-18T12:18:56.355Z,8.45
2018-12-18T12:19:56.374Z,8.28
2018-12-18T12:20:56.393Z,8.20
2018-12-18T12:21:56.414Z,8.26
2018-12-18T12:22:56.436Z,8.30
2018-12-18T12:23:56.443Z,8.38
2018-12-18T12:24:56.468Z,8.28
2018-12-18T12:25:56.474Z,8.34
2018-12-18T12:26:56.491Z,8.44
2018-12-18T12:27:56.514Z,8.38
2018-12-18T12:28:56.538Z,8.38
2018-12-18T12:29:56.551Z,8.34
2018-12-18T12:30:56.576Z,8.24
2018-12-18T12:31:56.579Z,8.31
2018-12-18T12:32:56.601Z,8.19
2018-12-18T12:33:56.635Z,8.20
2018-12-18T12:34:56.704Z,8.18
2018-12-18T12:35:56.655Z,8.24
2018-12-18T12:36:56.684Z,8.18
2018-12-18T12:37:56.689Z,8.09
2018-12-18T12:38:56.704Z,8.12
2018-12-18T12:39:56.722Z,8.00
2018-12-18T12:40:56.737Z,7.97
2018-12-18T12:41:56.747Z,7.98
2018-12-18T12:42:56.792Z,7.87
2018-12-18T12:43:56.788Z,7.87
2018-12-18T12:44:56.799Z,7.88
2018-12-18T12:45:56.816Z,8.03
2018-12-18T12:46:56.839Z,7.90
2018-12-18T12:47:56.855Z,8.01
2018-12-18T12:48:56.870Z,7.87
2018-12-18T12:49:56.895Z,7.87
2018-12-18T12:50:56.899Z,7.91
2018-12-18T12:51:56.933Z,8.03
2018-12-18T12:52:56.937Z,8.18
2018-12-18T12:53:56.949Z,8.16
2018-12-18T12:54:56.976Z,8.15
2018-12-18T12:55:56.996Z,8.34
2018-12-18T12:56:57.003Z,8.13
2018-12-18T12:57:57.016Z,8.18
2018-12-18T12:58:57.056Z,8.24
2018-12-18T12:59:57.062Z,7.98
2018-12-18T13:00:57.085Z,7.98
2018-12-18T13:01:57.096Z,8.01
2018-12-18T13:02:57.105Z,8.26
2018-12-18T13:03:57.128Z,8.20
2018-12-18T13:04:57.149Z,8.33
2018-12-18T13:05:57.159Z,8.20
2018-12-18T13:06:57.285Z,8.01
2018-12-18T13:07:57.193Z,8.12
2018-12-18T13:08:57.212Z,8.19
2018-12-18T13:09:57.220Z,8.24
2018-12-18T13:10:57.273Z,8.27
2018-12-18T13:11:57.256Z,8.26
2018-12-18T13:12:57.272Z,8.01
2018-12-18T13:13:57.291Z,8.00
2018-12-18T13:14:57.301Z,8.01
2018-12-18T13:15:57.341Z,7.93
2018-12-18T13:16:57.350Z,7.95
2018-12-18T13:17:57.366Z,7.90
2018-12-18T13:18:57.372Z,7.85